sensor_id;sensor_type;location;lat;lon;timestamp;pressure;altitude;pressure_sealevel;temperature;humidity
15193;BME280;7697;51.630;7.484;2023-05-29T00:00:08;-17615.69;;;16.25;63.01
15193;BME280;7697;51.630;7.484;2023-05-29T00:05:10;-17612.66;;;16.16;63.63
15193;BME280;7697;51.630;7.484;2023-05-29T00:10:14;-17610.31;;;16.09;64.02
15193;BME280;7697;51.630;7.484;2023-05-29T00:15:16;-17607.63;;;16.01;64.43
15193;BME280;7697;51.630;7.484;2023-05-29T00:20:18;-17604.94;;;15.93;65.12
15193;BME280;7697;51.630;7.484;2023-05-29T00:25:21;-17601.09;;;15.81;65.95
15193;BME280;7697;51.630;7.484;2023-05-29T00:30:23;-17594.88;;;15.62;66.24
15193;BME280;7697;51.630;7.484;2023-05-29T00:35:24;-17592.03;;;15.54;67.21
15193;BME280;7697;51.630;7.484;2023-05-29T00:40:27;-17589.34;;;15.46;68.15
15193;BME280;7697;51.630;7.484;2023-05-29T00:45:29;-17587.00;;;15.38;68.02
15193;BME280;7697;51.630;7.484;2023-05-29T00:50:32;-17583.97;;;15.29;68.63
15193;BME280;7697;51.630;7.484;2023-05-29T00:55:35;-17579.28;;;15.15;68.97
15193;BME280;7697;51.630;7.484;2023-05-29T01:00:37;-17573.22;;;14.97;69.78
15193;BME280;7697;51.630;7.484;2023-05-29T01:05:39;-17568.38;;;14.82;70.17
15193;BME280;7697;51.630;7.484;2023-05-29T01:10:43;-17562.66;;;14.65;71.24
15193;BME280;7697;51.630;7.484;2023-05-29T01:15:48;-17561.31;;;14.61;70.79
15193;BME280;7697;51.630;7.484;2023-05-29T01:21:01;-17556.97;;;14.48;71.93
15193;BME280;7697;51.630;7.484;2023-05-29T01:26:21;-17551.06;;;14.30;71.45
15193;BME280;7697;51.630;7.484;2023-05-29T01:31:27;-17551.75;;;14.32;71.38
15193;BME280;7697;51.630;7.484;2023-05-29T01:36:29;-17550.91;;;14.30;71.39
15193;BME280;7697;51.630;7.484;2023-05-29T01:41:33;-17550.25;;;14.27;71.35
15193;BME280;7697;51.630;7.484;2023-05-29T01:46:37;-17544.03;;;14.09;71.95
15193;BME280;7697;51.630;7.484;2023-05-29T01:51:40;-17543.34;;;14.07;71.54
15193;BME280;7697;51.630;7.484;2023-05-29T01:56:42;-17541.19;;;14.00;72.06
15193;BME280;7697;51.630;7.484;2023-05-29T02:01:45;-17540.00;;;13.97;72.31
15193;BME280;7697;51.630;7.484;2023-05-29T02:06:48;-17538.50;;;13.92;72.18
15193;BME280;7697;51.630;7.484;2023-05-29T02:11:52;-17534.81;;;13.81;72.59
15193;BME280;7697;51.630;7.484;2023-05-29T02:16:55;-17533.78;;;13.78;72.68
15193;BME280;7697;51.630;7.484;2023-05-29T02:21:57;-17529.09;;;13.64;72.98
15193;BME280;7697;51.630;7.484;2023-05-29T02:26:59;-17530.44;;;13.68;72.76
15193;BME280;7697;51.630;7.484;2023-05-29T02:32:02;-17529.25;;;13.64;72.82
15193;BME280;7697;51.630;7.484;2023-05-29T02:37:05;-17527.41;;;13.59;73.36
15193;BME280;7697;51.630;7.484;2023-05-29T02:42:06;-17527.09;;;13.58;73.12
15193;BME280;7697;51.630;7.484;2023-05-29T02:47:09;-17524.56;;;13.50;73.60
15193;BME280;7697;51.630;7.484;2023-05-29T02:52:11;-17519.38;;;13.34;73.96
15193;BME280;7697;51.630;7.484;2023-05-29T02:57:13;-17515.50;;;13.23;74.94
15193;BME280;7697;51.630;7.484;2023-05-29T03:02:17;-17514.84;;;13.21;74.87
15193;BME280;7697;51.630;7.484;2023-05-29T03:07:19;-17514.66;;;13.20;74.89
15193;BME280;7697;51.630;7.484;2023-05-29T03:12:20;-17514.66;;;13.20;74.69
15193;BME280;7697;51.630;7.484;2023-05-29T03:17:24;-17513.50;;;13.17;75.14
15193;BME280;7697;51.630;7.484;2023-05-29T03:22:26;-17512.81;;;13.14;75.25
15193;BME280;7697;51.630;7.484;2023-05-29T03:27:27;-17511.63;;;13.11;74.64
15193;BME280;7697;51.630;7.484;2023-05-29T03:32:30;-17510.97;;;13.09;75.20
15193;BME280;7697;51.630;7.484;2023-05-29T03:37:32;-17507.28;;;12.98;75.20
15193;BME280;7697;51.630;7.484;2023-05-29T03:42:34;-17506.44;;;12.95;75.28
15193;BME280;7697;51.630;7.484;2023-05-29T03:47:37;-17506.28;;;12.95;75.61
15193;BME280;7697;51.630;7.484;2023-05-29T03:52:38;-17503.09;;;12.85;75.71
15193;BME280;7697;51.630;7.484;2023-05-29T03:57:41;-17501.91;;;12.82;75.89
15193;BME280;7697;51.630;7.484;2023-05-29T04:02:44;-17497.38;;;12.68;76.20
15193;BME280;7697;51.630;7.484;2023-05-29T04:07:45;-17498.56;;;12.71;76.55
15193;BME280;7697;51.630;7.484;2023-05-29T04:12:47;-17498.72;;;12.72;76.40
15193;BME280;7697;51.630;7.484;2023-05-29T04:17:50;-17500.41;;;12.77;76.75
15193;BME280;7697;51.630;7.484;2023-05-29T04:22:52;-17499.56;;;12.74;76.46
15193;BME280;7697;51.630;7.484;2023-05-29T04:27:53;-17499.72;;;12.75;77.04
15193;BME280;7697;51.630;7.484;2023-05-29T04:32:57;-17497.03;;;12.67;77.18
15193;BME280;7697;51.630;7.484;2023-05-29T04:37:59;-17498.22;;;12.70;77.35
15193;BME280;7697;51.630;7.484;2023-05-29T04:43:01;-17497.88;;;12.69;77.29
15193;BME280;7697;51.630;7.484;2023-05-29T04:48:04;-17498.88;;;12.72;77.86
15193;BME280;7697;51.630;7.484;2023-05-29T04:53:06;-17498.22;;;12.70;78.11
15193;BME280;7697;51.630;7.484;2023-05-29T04:58:07;-17497.22;;;12.67;78.50
15193;BME280;7697;51.630;7.484;2023-05-29T05:03:10;-17498.06;;;12.70;79.50
15193;BME280;7697;51.630;7.484;2023-05-29T05:08:16;-17498.88;;;12.72;79.13
15193;BME280;7697;51.630;7.484;2023-05-29T05:13:18;-17501.56;;;12.81;79.54
15193;BME280;7697;51.630;7.484;2023-05-29T05:18:21;-17503.59;;;12.87;79.14
15193;BME280;7697;51.630;7.484;2023-05-29T05:23:23;-17504.59;;;12.90;79.38
15193;BME280;7697;51.630;7.484;2023-05-29T05:28:25;-17506.28;;;12.95;79.06
15193;BME280;7697;51.630;7.484;2023-05-29T05:33:28;-17511.47;;;13.10;79.14
15193;BME280;7697;51.630;7.484;2023-05-29T05:38:29;-17512.66;;;13.14;79.08
15193;BME280;7697;51.630;7.484;2023-05-29T05:43:31;-17512.31;;;13.13;79.16
15193;BME280;7697;51.630;7.484;2023-05-29T05:48:34;-17517.19;;;13.28;78.68
15193;BME280;7697;51.630;7.484;2023-05-29T05:53:36;-17519.38;;;13.34;78.31
15193;BME280;7697;51.630;7.484;2023-05-29T05:58:38;-17523.06;;;13.45;78.34
15193;BME280;7697;51.630;7.484;2023-05-29T06:03:41;-17527.91;;;13.60;77.57
15193;BME280;7697;51.630;7.484;2023-05-29T06:08:44;-17534.81;;;13.81;77.28
15193;BME280;7697;51.630;7.484;2023-05-29T06:13:46;-17537.66;;;13.89;77.00
15193;BME280;7697;51.630;7.484;2023-05-29T06:18:49;-17545.22;;;14.12;76.35
15193;BME280;7697;51.630;7.484;2023-05-29T06:23:50;-17547.22;;;14.18;76.21
15193;BME280;7697;51.630;7.484;2023-05-29T06:28:52;-17553.09;;;14.36;76.10
15193;BME280;7697;51.630;7.484;2023-05-29T06:33:55;-17559.47;;;14.55;75.16
15193;BME280;7697;51.630;7.484;2023-05-29T06:38:57;-17563.34;;;14.67;75.25
15193;BME280;7697;51.630;7.484;2023-05-29T06:43:59;-17565.34;;;14.73;74.68
15193;BME280;7697;51.630;7.484;2023-05-29T06:49:02;-17573.91;;;14.99;74.09
15193;BME280;7697;51.630;7.484;2023-05-29T06:54:05;-17580.63;;;15.19;73.71
15193;BME280;7697;51.630;7.484;2023-05-29T06:59:07;-17583.97;;;15.29;73.70
15193;BME280;7697;51.630;7.484;2023-05-29T07:04:10;-17591.84;;;15.53;72.71
15193;BME280;7697;51.630;7.484;2023-05-29T07:09:12;-17601.59;;;15.83;72.16
15193;BME280;7697;51.630;7.484;2023-05-29T07:14:14;-17605.78;;;15.95;71.80
15193;BME280;7697;51.630;7.484;2023-05-29T07:19:17;-17611.81;;;16.13;71.10
15193;BME280;7697;51.630;7.484;2023-05-29T07:24:19;-17618.38;;;16.33;69.73
15193;BME280;7697;51.630;7.484;2023-05-29T07:29:21;-17625.59;;;16.55;68.65
15193;BME280;7697;51.630;7.484;2023-05-29T07:34:24;-17632.47;;;16.76;68.09
15193;BME280;7697;51.630;7.484;2023-05-29T07:39:26;-17638.84;;;16.95;67.84
15193;BME280;7697;51.630;7.484;2023-05-29T07:44:28;-17644.56;;;17.12;67.07
15193;BME280;7697;51.630;7.484;2023-05-29T07:49:32;-17645.41;;;17.15;66.10
15193;BME280;7697;51.630;7.484;2023-05-29T07:54:34;-17652.09;;;17.35;66.15
15193;BME280;7697;51.630;7.484;2023-05-29T07:59:35;-17657.81;;;17.52;65.84
15193;BME280;7697;51.630;7.484;2023-05-29T08:04:38;-17661.84;;;17.65;64.90
15193;BME280;7697;51.630;7.484;2023-05-29T08:09:41;-17664.69;;;17.73;64.50
15193;BME280;7697;51.630;7.484;2023-05-29T08:14:43;-17673.94;;;18.01;63.96
15193;BME280;7697;51.630;7.484;2023-05-29T08:19:46;-17668.38;;;17.84;63.17
15193;BME280;7697;51.630;7.484;2023-05-29T08:24:48;-17676.78;;;18.10;63.00
15193;BME280;7697;51.630;7.484;2023-05-29T08:29:50;-17684.84;;;18.34;61.09
15193;BME280;7697;51.630;7.484;2023-05-29T08:34:53;-17688.84;;;18.46;62.19
15193;BME280;7697;51.630;7.484;2023-05-29T08:39:55;-17700.44;;;18.81;61.09
15193;BME280;7697;51.630;7.484;2023-05-29T08:44:58;-17704.63;;;18.94;59.82
15193;BME280;7697;51.630;7.484;2023-05-29T08:50:06;-17698.59;;;18.76;59.41
15193;BME280;7697;51.630;7.484;2023-05-29T08:55:10;-17701.63;;;18.85;59.46
15193;BME280;7697;51.630;7.484;2023-05-29T09:00:12;-17705.63;;;18.97;58.19
15193;BME280;7697;51.630;7.484;2023-05-29T09:05:15;-17709.34;;;19.08;58.44
15193;BME280;7697;51.630;7.484;2023-05-29T09:10:21;-17710.00;;;19.10;57.86
15193;BME280;7697;51.630;7.484;2023-05-29T09:15:26;-17718.91;;;19.37;58.43
15193;BME280;7697;51.630;7.484;2023-05-29T09:20:29;-17725.28;;;19.56;56.31
15193;BME280;7697;51.630;7.484;2023-05-29T09:25:32;-17730.66;;;19.72;56.11
15193;BME280;7697;51.630;7.484;2023-05-29T09:30:36;-17749.44;;;20.29;56.08
15193;BME280;7697;51.630;7.484;2023-05-29T09:35:41;-17761.88;;;20.67;55.72
15193;BME280;7697;51.630;7.484;2023-05-29T09:40:43;-17774.13;;;21.04;54.27
15193;BME280;7697;51.630;7.484;2023-05-29T09:45:47;-17782.50;;;21.29;53.74
15193;BME280;7697;51.630;7.484;2023-05-29T09:50:51;-17788.22;;;21.46;52.34
15193;BME280;7697;51.630;7.484;2023-05-29T09:55:55;-17797.09;;;21.73;51.45
15193;BME280;7697;51.630;7.484;2023-05-29T10:00:59;-17810.38;;;22.13;51.31
15193;BME280;7697;51.630;7.484;2023-05-29T10:06:04;-17811.03;;;22.15;50.02
15193;BME280;7697;51.630;7.484;2023-05-29T10:11:08;-17807.69;;;22.05;50.59
15193;BME280;7697;51.630;7.484;2023-05-29T10:16:15;-17803.66;;;21.93;51.00
15193;BME280;7697;51.630;7.484;2023-05-29T10:21:25;-17809.19;;;22.10;50.61
15193;BME280;7697;51.630;7.484;2023-05-29T10:26:28;-17816.41;;;22.31;51.21
15193;BME280;7697;51.630;7.484;2023-05-29T10:31:37;-17818.25;;;22.37;49.77
15193;BME280;7697;51.630;7.484;2023-05-29T10:36:46;-17828.81;;;22.69;50.18
15193;BME280;7697;51.630;7.484;2023-05-29T10:41:50;-17842.25;;;23.09;49.30
15193;BME280;7697;51.630;7.484;2023-05-29T10:47:06;-17842.41;;;23.10;48.52
15193;BME280;7697;51.630;7.484;2023-05-29T10:52:11;-17838.06;;;22.97;48.04
15193;BME280;7697;51.630;7.484;2023-05-29T10:57:14;-17829.16;;;22.70;47.68
15193;BME280;7697;51.630;7.484;2023-05-29T11:02:18;-17822.28;;;22.49;49.08
15193;BME280;7697;51.630;7.484;2023-05-29T11:07:39;-17834.03;;;22.85;48.07
15193;BME280;7697;51.630;7.484;2023-05-29T11:12:56;-17839.56;;;23.01;48.48
15193;BME280;7697;51.630;7.484;2023-05-29T11:18:05;-17839.91;;;23.02;48.20
15193;BME280;7697;51.630;7.484;2023-05-29T11:23:14;-17843.25;;;23.12;48.46
15193;BME280;7697;51.630;7.484;2023-05-29T11:28:17;-17849.78;;;23.32;48.00
15193;BME280;7697;51.630;7.484;2023-05-29T11:33:23;-17855.34;;;23.49;47.08
15193;BME280;7697;51.630;7.484;2023-05-29T11:38:28;-17852.16;;;23.39;47.63
15193;BME280;7697;51.630;7.484;2023-05-29T11:43:30;-17856.50;;;23.52;47.42
15193;BME280;7697;51.630;7.484;2023-05-29T11:48:33;-17859.38;;;23.61;47.40
15193;BME280;7697;51.630;7.484;2023-05-29T11:53:40;-17855.00;;;23.48;47.40
15193;BME280;7697;51.630;7.484;2023-05-29T11:58:42;-17858.69;;;23.59;46.05
15193;BME280;7697;51.630;7.484;2023-05-29T12:03:44;-17863.38;;;23.73;46.35
15193;BME280;7697;51.630;7.484;2023-05-29T12:08:51;-17875.13;;;24.09;46.63
15193;BME280;7697;51.630;7.484;2023-05-29T12:13:55;-17890.22;;;24.54;45.85
15193;BME280;7697;51.630;7.484;2023-05-29T12:18:58;-17891.25;;;24.57;45.08
15193;BME280;7697;51.630;7.484;2023-05-29T12:24:01;-17893.59;;;24.64;44.25
15193;BME280;7697;51.630;7.484;2023-05-29T12:29:03;-17897.94;;;24.78;44.32
15193;BME280;7697;51.630;7.484;2023-05-29T12:34:08;-17903.84;;;24.95;42.56
15193;BME280;7697;51.630;7.484;2023-05-29T12:39:11;-17904.00;;;24.96;43.35
15193;BME280;7697;51.630;7.484;2023-05-29T12:44:13;-17895.59;;;24.71;42.83
15193;BME280;7697;51.630;7.484;2023-05-29T12:49:17;-17898.28;;;24.79;44.07
15193;BME280;7697;51.630;7.484;2023-05-29T12:54:22;-17908.19;;;25.09;43.50
15193;BME280;7697;51.630;7.484;2023-05-29T12:59:23;-17908.84;;;25.11;43.22
15193;BME280;7697;51.630;7.484;2023-05-29T13:04:25;-17906.34;;;25.03;43.00
15193;BME280;7697;51.630;7.484;2023-05-29T13:09:28;-17892.59;;;24.61;42.59
15193;BME280;7697;51.630;7.484;2023-05-29T13:14:31;-17891.41;;;24.58;43.17
15193;BME280;7697;51.630;7.484;2023-05-29T13:19:32;-17893.94;;;24.65;42.87
15193;BME280;7697;51.630;7.484;2023-05-29T13:24:36;-17889.56;;;24.52;42.80
15193;BME280;7697;51.630;7.484;2023-05-29T13:29:37;-17890.91;;;24.56;42.71
15193;BME280;7697;51.630;7.484;2023-05-29T13:34:39;-17901.31;;;24.88;43.37
15193;BME280;7697;51.630;7.484;2023-05-29T13:39:42;-17906.50;;;25.03;43.02
15193;BME280;7697;51.630;7.484;2023-05-29T13:44:44;-17915.06;;;25.29;43.04
15193;BME280;7697;51.630;7.484;2023-05-29T13:49:46;-17918.41;;;25.39;42.04
15193;BME280;7697;51.630;7.484;2023-05-29T13:54:49;-17906.34;;;25.03;42.34
15193;BME280;7697;51.630;7.484;2023-05-29T13:59:51;-17908.03;;;25.08;42.47
15193;BME280;7697;51.630;7.484;2023-05-29T14:04:53;-17908.84;;;25.11;41.26
15193;BME280;7697;51.630;7.484;2023-05-29T14:09:56;-17905.84;;;25.01;42.34
15193;BME280;7697;51.630;7.484;2023-05-29T14:14:58;-17901.31;;;24.88;42.17
15193;BME280;7697;51.630;7.484;2023-05-29T14:20:00;-17892.91;;;24.62;43.14
15193;BME280;7697;51.630;7.484;2023-05-29T14:25:06;-17887.22;;;24.45;41.87
15193;BME280;7697;51.630;7.484;2023-05-29T14:30:09;-17888.56;;;24.49;41.50
15193;BME280;7697;51.630;7.484;2023-05-29T14:35:11;-17891.06;;;24.57;41.72
15193;BME280;7697;51.630;7.484;2023-05-29T14:40:14;-17895.09;;;24.69;41.13
15193;BME280;7697;51.630;7.484;2023-05-29T14:45:16;-17885.19;;;24.39;41.58
15193;BME280;7697;51.630;7.484;2023-05-29T14:50:18;-17889.72;;;24.53;41.45
15193;BME280;7697;51.630;7.484;2023-05-29T14:55:22;-17895.25;;;24.69;41.59
15193;BME280;7697;51.630;7.484;2023-05-29T15:00:24;-17890.56;;;24.55;40.63
15193;BME280;7697;51.630;7.484;2023-05-29T15:05:26;-17886.03;;;24.42;41.05
15193;BME280;7697;51.630;7.484;2023-05-29T15:10:30;-17889.22;;;24.51;41.20
15193;BME280;7697;51.630;7.484;2023-05-29T15:15:32;-17889.91;;;24.53;40.35
15193;BME280;7697;51.630;7.484;2023-05-29T15:20:34;-17887.22;;;24.45;40.36
15193;BME280;7697;51.630;7.484;2023-05-29T15:25:37;-17876.13;;;24.12;39.04
15193;BME280;7697;51.630;7.484;2023-05-29T15:30:39;-17880.50;;;24.25;39.65
15193;BME280;7697;51.630;7.484;2023-05-29T15:35:41;-17886.03;;;24.42;37.84
15193;BME280;7697;51.630;7.484;2023-05-29T15:40:44;-17882.19;;;24.30;38.00
15193;BME280;7697;51.630;7.484;2023-05-29T15:45:46;-17875.13;;;24.09;37.68
15193;BME280;7697;51.630;7.484;2023-05-29T15:50:49;-17868.59;;;23.89;37.05
15193;BME280;7697;51.630;7.484;2023-05-29T15:55:52;-17857.84;;;23.56;36.95
15193;BME280;7697;51.630;7.484;2023-05-29T16:00:54;-17852.16;;;23.39;37.32
15193;BME280;7697;51.630;7.484;2023-05-29T16:05:56;-17846.94;;;23.24;37.67
15193;BME280;7697;51.630;7.484;2023-05-29T16:10:59;-17842.59;;;23.10;37.71
15193;BME280;7697;51.630;7.484;2023-05-29T16:16:01;-17835.53;;;22.89;38.12
15193;BME280;7697;51.630;7.484;2023-05-29T16:21:03;-17830.31;;;22.73;38.16
15193;BME280;7697;51.630;7.484;2023-05-29T16:26:07;-17825.13;;;22.58;37.86
15193;BME280;7697;51.630;7.484;2023-05-29T16:31:09;-17819.59;;;22.41;37.74
15193;BME280;7697;51.630;7.484;2023-05-29T16:36:11;-17812.03;;;22.18;37.61
15193;BME280;7697;51.630;7.484;2023-05-29T16:41:14;-17807.69;;;22.05;37.64
15193;BME280;7697;51.630;7.484;2023-05-29T16:46:16;-17803.97;;;21.94;36.63
15193;BME280;7697;51.630;7.484;2023-05-29T16:51:18;-17797.78;;;21.75;37.24
15193;BME280;7697;51.630;7.484;2023-05-29T16:56:25;-17792.56;;;21.59;38.05
15193;BME280;7697;51.630;7.484;2023-05-29T17:01:27;-17788.56;;;21.47;36.97
15193;BME280;7697;51.630;7.484;2023-05-29T17:06:29;-17787.53;;;21.44;37.89
15193;BME280;7697;51.630;7.484;2023-05-29T17:11:32;-17789.22;;;21.49;37.37
15193;BME280;7697;51.630;7.484;2023-05-29T17:16:34;-17787.88;;;21.45;37.46
15193;BME280;7697;51.630;7.484;2023-05-29T17:21:36;-17784.19;;;21.34;37.92
15193;BME280;7697;51.630;7.484;2023-05-29T17:26:45;-17784.53;;;21.35;37.97
15193;BME280;7697;51.630;7.484;2023-05-29T17:31:47;-17778.81;;;21.18;37.22
15193;BME280;7697;51.630;7.484;2023-05-29T17:36:49;-17774.78;;;21.06;37.28
15193;BME280;7697;51.630;7.484;2023-05-29T17:41:52;-17771.09;;;20.94;37.73
15193;BME280;7697;51.630;7.484;2023-05-29T17:46:54;-17769.41;;;20.89;37.30
15193;BME280;7697;51.630;7.484;2023-05-29T17:51:56;-17766.22;;;20.80;36.96
15193;BME280;7697;51.630;7.484;2023-05-29T17:56:59;-17764.38;;;20.74;37.16
15193;BME280;7697;51.630;7.484;2023-05-29T18:02:02;-17762.88;;;20.70;37.13
15193;BME280;7697;51.630;7.484;2023-05-29T18:07:04;-17762.19;;;20.68;37.67
15193;BME280;7697;51.630;7.484;2023-05-29T18:12:08;-17757.34;;;20.53;37.35
15193;BME280;7697;51.630;7.484;2023-05-29T18:17:10;-17753.13;;;20.40;38.02
15193;BME280;7697;51.630;7.484;2023-05-29T18:22:11;-17750.44;;;20.32;38.72
15193;BME280;7697;51.630;7.484;2023-05-29T18:27:18;-17749.28;;;20.29;38.56
15193;BME280;7697;51.630;7.484;2023-05-29T18:32:21;-17746.94;;;20.21;39.42
15193;BME280;7697;51.630;7.484;2023-05-29T18:37:22;-17743.91;;;20.12;39.26
15193;BME280;7697;51.630;7.484;2023-05-29T18:42:26;-17739.88;;;20.00;39.89
15193;BME280;7697;51.630;7.484;2023-05-29T18:47:28;-17734.19;;;19.83;40.15
15193;BME280;7697;51.630;7.484;2023-05-29T18:52:29;-17733.50;;;19.81;40.41
15193;BME280;7697;51.630;7.484;2023-05-29T18:57:34;-17732.00;;;19.76;40.79
15193;BME280;7697;51.630;7.484;2023-05-29T19:02:36;-17728.47;;;19.66;41.08
15193;BME280;7697;51.630;7.484;2023-05-29T19:07:38;-17725.78;;;19.58;41.34
15193;BME280;7697;51.630;7.484;2023-05-29T19:12:41;-17723.09;;;19.50;41.30
15193;BME280;7697;51.630;7.484;2023-05-29T19:17:43;-17718.41;;;19.35;41.90
15193;BME280;7697;51.630;7.484;2023-05-29T19:22:49;-17715.03;;;19.25;42.04
15193;BME280;7697;51.630;7.484;2023-05-29T19:27:53;-17712.34;;;19.17;42.40
15193;BME280;7697;51.630;7.484;2023-05-29T19:32:55;-17705.63;;;18.97;42.61
15193;BME280;7697;51.630;7.484;2023-05-29T19:37:56;-17699.94;;;18.80;42.54
15193;BME280;7697;51.630;7.484;2023-05-29T19:43:00;-17696.91;;;18.70;42.80
15193;BME280;7697;51.630;7.484;2023-05-29T19:48:01;-17692.91;;;18.58;42.82
15193;BME280;7697;51.630;7.484;2023-05-29T19:53:03;-17691.22;;;18.53;42.96
15193;BME280;7697;51.630;7.484;2023-05-29T19:58:07;-17687.53;;;18.42;43.36
15193;BME280;7697;51.630;7.484;2023-05-29T20:03:09;-17685.16;;;18.35;43.35
15193;BME280;7697;51.630;7.484;2023-05-29T20:08:11;-17683.81;;;18.31;43.70
15193;BME280;7697;51.630;7.484;2023-05-29T20:13:19;-17681.13;;;18.23;43.99
15193;BME280;7697;51.630;7.484;2023-05-29T20:18:20;-17676.59;;;18.09;44.08
15193;BME280;7697;51.630;7.484;2023-05-29T20:23:22;-17673.94;;;18.01;45.58
15193;BME280;7697;51.630;7.484;2023-05-29T20:28:26;-17670.72;;;17.91;44.76
15193;BME280;7697;51.630;7.484;2023-05-29T20:33:29;-17667.53;;;17.82;45.66
15193;BME280;7697;51.630;7.484;2023-05-29T20:38:31;-17663.34;;;17.69;45.81
15193;BME280;7697;51.630;7.484;2023-05-29T20:43:35;-17661.19;;;17.63;46.18
15193;BME280;7697;51.630;7.484;2023-05-29T20:48:37;-17656.31;;;17.48;46.86
15193;BME280;7697;51.630;7.484;2023-05-29T20:53:39;-17653.44;;;17.39;46.98
15193;BME280;7697;51.630;7.484;2023-05-29T20:58:44;-17651.28;;;17.33;46.63
15193;BME280;7697;51.630;7.484;2023-05-29T21:03:45;-17647.75;;;17.22;46.41
15193;BME280;7697;51.630;7.484;2023-05-29T21:08:48;-17644.88;;;17.13;46.61
15193;BME280;7697;51.630;7.484;2023-05-29T21:13:51;-17642.22;;;17.05;46.89
15193;BME280;7697;51.630;7.484;2023-05-29T21:18:53;-17638.19;;;16.93;46.87
15193;BME280;7697;51.630;7.484;2023-05-29T21:23:54;-17634.50;;;16.82;47.46
15193;BME280;7697;51.630;7.484;2023-05-29T21:28:58;-17633.47;;;16.79;48.13
15193;BME280;7697;51.630;7.484;2023-05-29T21:34:00;-17629.78;;;16.68;48.04
15193;BME280;7697;51.630;7.484;2023-05-29T21:39:03;-17626.09;;;16.57;48.33
15193;BME280;7697;51.630;7.484;2023-05-29T21:44:08;-17621.72;;;16.43;48.18
15193;BME280;7697;51.630;7.484;2023-05-29T21:49:10;-17618.03;;;16.32;49.05
15193;BME280;7697;51.630;7.484;2023-05-29T21:54:12;-17616.03;;;16.26;49.40
15193;BME280;7697;51.630;7.484;2023-05-29T21:59:15;-17610.81;;;16.10;49.44
15193;BME280;7697;51.630;7.484;2023-05-29T22:04:18;-17604.44;;;15.91;49.29
15193;BME280;7697;51.630;7.484;2023-05-29T22:09:19;-17598.75;;;15.74;49.55
15193;BME280;7697;51.630;7.484;2023-05-29T22:14:22;-17594.22;;;15.60;49.32
15193;BME280;7697;51.630;7.484;2023-05-29T22:19:24;-17589.50;;;15.46;48.94
15193;BME280;7697;51.630;7.484;2023-05-29T22:24:26;-17581.13;;;15.21;49.69
15193;BME280;7697;51.630;7.484;2023-05-29T22:29:30;-17578.09;;;15.12;50.36
15193;BME280;7697;51.630;7.484;2023-05-29T22:34:32;-17575.56;;;15.04;50.60
15193;BME280;7697;51.630;7.484;2023-05-29T22:39:34;-17573.22;;;14.97;50.74
15193;BME280;7697;51.630;7.484;2023-05-29T22:44:37;-17572.06;;;14.93;51.12
15193;BME280;7697;51.630;7.484;2023-05-29T22:49:39;-17569.88;;;14.87;51.54
15193;BME280;7697;51.630;7.484;2023-05-29T22:54:41;-17565.84;;;14.75;51.28
15193;BME280;7697;51.630;7.484;2023-05-29T22:59:44;-17567.03;;;14.78;51.92
15193;BME280;7697;51.630;7.484;2023-05-29T23:04:46;-17562.31;;;14.64;52.06
15193;BME280;7697;51.630;7.484;2023-05-29T23:09:48;-17557.78;;;14.50;52.42
15193;BME280;7697;51.630;7.484;2023-05-29T23:14:51;-17557.28;;;14.49;53.33
15193;BME280;7697;51.630;7.484;2023-05-29T23:19:53;-17553.25;;;14.37;53.20
15193;BME280;7697;51.630;7.484;2023-05-29T23:24:55;-17552.59;;;14.35;53.52
15193;BME280;7697;51.630;7.484;2023-05-29T23:29:58;-17548.06;;;14.21;54.12
15193;BME280;7697;51.630;7.484;2023-05-29T23:35:00;-17544.88;;;14.11;54.44
15193;BME280;7697;51.630;7.484;2023-05-29T23:40:02;-17545.22;;;14.12;55.21
15193;BME280;7697;51.630;7.484;2023-05-29T23:45:07;-17536.81;;;13.87;55.88
15193;BME280;7697;51.630;7.484;2023-05-29T23:50:10;-17534.13;;;13.79;55.95
15193;BME280;7697;51.630;7.484;2023-05-29T23:55:12;-17533.13;;;13.76;56.46
